Montrose Regional Airport
KMTJ : now visible

Airfield :











YOU CAN JOIN US ON...

 
LOGIN :

Register | Disclaimer

   EN    FR    IT 

 









Legend :    VFR   Marginal VFR   IFR   Intensive IFR   Very Intensive IFR
Visi :
Ceiling :
>= 8 km
>= 3000ft
5 to 8 km
1000 to 3000 ft
1500m to 5 km
500 to 1000 ft
800 to 1500m
200 to 500 ft
< 800m
< 200 ft
Symbols :   Thunderstorms  Fog  Heavy snow  Heavy precipitations  Wind > 20 kt






- Airport Elevation : 5759 ft


KMTJ - Montrose Regional

CURRENT METAR :
  • 181153Z AUTO 14010KT 10SM CLR 10/01 A3016 RMK AO2 SLP142 T01000011 10178 20100 55000 $

EXPIRED METARs :
  • 181053Z AUTO 16009KT 10SM CLR 10/01 A3016 RMK AO2 SLP139 T01000011 $
  • 180953Z AUTO 13010KT 10SM CLR 12/02 A3016 RMK AO2 SLP135 T01170017 $

TAF KMTJ
Valid from the 18 at 12:00 until the 19 at 12:00 UTC


181140Z 1812/1912 16009KT P6SM SKC
FM181800 30010G18KT P6SM FEW100 FEW250
FM190200 15008KT P6SM FEW250
KZDV FIR / North America



MET'MAP, your aeronautical weather chart ! - Copyright ORBIFLY December 2007 - Disclaimer

ORBIFLY MET'MAP TEAM :

Programming & Development : Alexandra Zaïnal
Original concept : Baudouin d'Aumeries
Technical & hardware support : Manuel Goepfert
Assistance : Marc-Olivier Méhu

Contact : metmap@orbifly.com




SOURCES & CREDITS :

   NOAA       Earth
Advisory